Time;durP1;ratioP1;P1;durP2;ratioP2;P2;SDS_P1;SDS_P2;PMS_P1;PMS_P2;Temp;Humidity;BMP_temperature;BMP_pressure;BME280_temperature;BME280_humidity;BME280_pressure;Samples;Min_cycle;Max_cycle;Signal;HPM_P1;HPM_P2
2021/10/24 00:00:26;;;;;;;11.90;5.00;;;;;;;11.98;47.10;101417.27;117534;1182;23487;-59
2021/10/24 00:02:56;;;;;;;9.00;4.80;;;;;;;11.99;46.97;101419.20;117322;1182;24712;-60
2021/10/24 00:05:25;;;;;;;8.70;4.30;;;;;;;11.93;47.12;101418.31;117461;1180;22919;-60
2021/10/24 00:07:53;;;;;;;9.40;4.30;;;;;;;11.89;47.15;101414.45;117438;1182;23439;-57
2021/10/24 00:10:36;;;;;;;9.60;4.60;;;;;;;11.81;47.09;101412.69;117360;1179;22537;-56
2021/10/24 00:13:04;;;;;;;8.40;5.00;;;;;;;11.80;47.11;101412.34;117506;1183;24154;-57
2021/10/24 00:15:35;;;;;;;10.30;4.50;;;;;;;11.73;47.19;101409.71;117513;1182;23443;-57
2021/10/24 00:18:04;;;;;;;9.10;4.40;;;;;;;11.75;47.11;101406.72;117476;1182;23490;-60
2021/10/24 00:20:32;;;;;;;9.40;4.50;;;;;;;11.79;47.04;101403.02;117480;1186;22841;-61
2021/10/24 00:23:01;;;;;;;9.20;4.30;;;;;;;11.74;47.15;101398.64;117497;1184;21851;-57
2021/10/24 00:25:30;;;;;;;11.80;5.20;;;;;;;11.70;47.19;101399.52;117397;1181;22915;-57
2021/10/24 00:27:58;;;;;;;8.60;4.20;;;;;;;11.68;47.25;101405.33;117425;1182;23560;-59
2021/10/24 00:30:46;;;;;;;7.90;4.40;;;;;;;11.69;47.10;101408.49;117510;1182;22649;-56
2021/10/24 00:33:15;;;;;;;9.50;4.30;;;;;;;11.74;47.19;101410.95;117551;1183;21871;-59
2021/10/24 00:35:43;;;;;;;10.60;4.20;;;;;;;11.78;47.05;101413.92;117540;1184;21856;-57
2021/10/24 00:38:11;;;;;;;12.80;4.50;;;;;;;11.79;47.07;101421.48;117480;1182;22618;-57
2021/10/24 00:40:40;;;;;;;10.40;4.90;;;;;;;11.72;47.12;101420.78;117543;1185;24152;-57
2021/10/24 00:43:08;;;;;;;10.70;4.80;;;;;;;11.74;47.23;101427.64;117525;1183;22631;-57
2021/10/24 00:45:37;;;;;;;10.40;4.70;;;;;;;11.78;47.12;101422.71;117510;1184;23516;-57
2021/10/24 00:48:06;;;;;;;8.70;4.20;;;;;;;11.76;47.18;101415.16;117485;1184;23634;-60
2021/10/24 00:50:35;;;;;;;12.20;4.90;;;;;;;11.77;47.37;101404.08;117508;1182;22841;-60
2021/10/24 00:53:04;;;;;;;11.70;5.50;;;;;;;11.78;47.13;101409.17;117400;1182;23435;-59
2021/10/24 00:55:36;;;;;;;8.90;4.70;;;;;;;11.78;47.26;101422.91;117536;1182;23438;-57
2021/10/24 00:58:06;;;;;;;12.60;5.00;;;;;;;11.77;47.04;101418.32;117465;1186;23465;-60
2021/10/24 01:00:34;;;;;;;9.00;4.70;;;;;;;11.79;47.14;101411.64;117448;1184;21881;-58
2021/10/24 01:03:02;;;;;;;9.60;4.10;;;;;;;11.88;46.98;101409.34;117406;1185;22413;-57
2021/10/24 01:05:31;;;;;;;9.90;4.50;;;;;;;11.90;46.94;101417.61;117516;1184;21940;-60
2021/10/24 01:08:00;;;;;;;10.70;4.60;;;;;;;11.83;47.25;101428.88;117553;1183;21865;-60
2021/10/24 01:10:28;;;;;;;10.40;4.40;;;;;;;11.81;46.99;101438.72;117444;1186;21866;-57
2021/10/24 01:12:56;;;;;;;10.90;4.20;;;;;;;11.82;47.41;101439.95;117306;1185;21845;-60
2021/10/24 01:15:25;;;;;;;12.60;4.60;;;;;;;11.81;47.17;101438.38;117515;1184;23445;-59
2021/10/24 01:17:54;;;;;;;9.60;4.70;;;;;;;11.86;47.04;101443.12;117426;1183;23442;-60
2021/10/24 01:20:24;;;;;;;11.60;4.80;;;;;;;11.79;47.25;101460.88;117399;1182;23658;-58
2021/10/24 01:22:52;;;;;;;10.30;4.30;;;;;;;11.76;47.22;101465.27;117532;1183;22632;-59
2021/10/24 01:25:20;;;;;;;12.30;4.80;;;;;;;11.73;47.23;101464.21;117522;1182;21858;-60
2021/10/24 01:27:49;;;;;;;10.00;4.60;;;;;;;11.74;47.29;101462.27;117403;1186;21857;-60
2021/10/24 01:30:18;;;;;;;8.20;3.70;;;;;;;11.75;47.21;101463.16;117441;1185;23567;-60
2021/10/24 01:32:47;;;;;;;7.80;4.20;;;;;;;11.86;46.97;101461.41;117534;1185;21909;-60
2021/10/24 01:35:16;;;;;;;12.50;4.40;;;;;;;11.90;46.85;101467.39;117492;1180;23471;-60
2021/10/24 01:37:44;;;;;;;7.50;4.10;;;;;;;11.91;46.99;101481.30;117470;1186;21854;-57
2021/10/24 01:40:15;;;;;;;10.50;4.30;;;;;;;11.93;46.89;101486.20;117485;1184;23470;-57
2021/10/24 01:42:46;;;;;;;11.10;4.00;;;;;;;11.84;47.07;101484.27;117458;1185;22924;-57
2021/10/24 01:45:17;;;;;;;9.30;4.20;;;;;;;11.78;47.10;101484.79;117422;1182;24287;-57
2021/10/24 01:47:46;;;;;;;9.80;4.20;;;;;;;11.77;47.16;101487.08;117295;1184;22905;-59
2021/10/24 01:50:14;;;;;;;14.80;5.30;;;;;;;11.76;47.18;101490.23;117551;1176;21898;-60
2021/10/24 01:52:43;;;;;;;9.40;4.30;;;;;;;11.76;47.14;101492.00;117517;1182;23547;-57
2021/10/24 01:55:12;;;;;;;10.70;5.30;;;;;;;11.80;47.05;101491.48;117498;1185;21867;-59
2021/10/24 01:57:44;;;;;;;12.10;5.60;;;;;;;11.76;47.13;101488.30;117520;1183;22655;-57
2021/10/24 02:00:14;;;;;;;11.30;4.90;;;;;;;11.75;47.21;101484.79;117479;1179;23566;-57
2021/10/24 02:02:42;;;;;;;12.40;5.30;;;;;;;11.75;47.17;101478.98;117478;1185;21887;-60
2021/10/24 02:05:11;;;;;;;11.40;5.00;;;;;;;11.78;47.18;101473.36;117490;1184;23555;-57
2021/10/24 02:07:41;;;;;;;9.70;4.80;;;;;;;11.78;47.16;101464.75;117449;1176;23472;-57
2021/10/24 02:10:14;;;;;;;8.50;4.00;;;;;;;11.79;47.14;101452.97;117399;1183;21851;-60
2021/10/24 02:12:42;;;;;;;11.20;4.70;;;;;;;11.80;47.24;101461.05;117414;1182;21858;-60
2021/10/24 02:15:11;;;;;;;8.30;3.60;;;;;;;11.77;47.26;101468.96;117395;1183;23451;-60
2021/10/24 02:17:39;;;;;;;12.10;4.40;;;;;;;11.71;47.13;101480.58;117554;1182;23705;-61
2021/10/24 02:20:08;;;;;;;11.20;4.20;;;;;;;11.65;47.05;101485.84;117443;1182;21991;-57
2021/10/24 02:22:37;;;;;;;11.40;4.50;;;;;;;11.62;47.07;101492.88;117367;1185;21854;-59
2021/10/24 02:25:05;;;;;;;10.10;3.80;;;;;;;11.61;47.14;101500.78;117572;1182;23439;-60
2021/10/24 02:27:34;;;;;;;9.20;4.20;;;;;;;11.60;47.09;101504.81;117450;1188;21858;-57
2021/10/24 02:30:03;;;;;;;9.40;4.70;;;;;;;11.58;47.00;101508.69;117436;1176;21888;-57
2021/10/24 02:32:36;;;;;;;10.50;4.30;;;;;;;11.55;47.25;101512.90;117413;1185;23513;-57
2021/10/24 02:35:05;;;;;;;7.60;3.60;;;;;;;11.56;47.10;101515.00;117534;1183;21871;-60
2021/10/24 02:37:34;;;;;;;9.30;3.70;;;;;;;11.55;47.05;101518.17;117561;1181;23544;-60
2021/10/24 02:40:03;;;;;;;7.50;3.90;;;;;;;11.49;47.15;101517.80;117428;1182;23584;-57
2021/10/24 02:42:31;;;;;;;8.50;3.80;;;;;;;11.47;47.18;101511.13;117544;1182;22913;-58
2021/10/24 02:45:00;;;;;;;5.80;3.30;;;;;;;11.46;47.23;101512.00;117471;1183;23465;-60
2021/10/24 02:47:28;;;;;;;8.60;4.00;;;;;;;11.40;46.91;101507.95;117370;1185;23900;-60
2021/10/24 02:49:56;;;;;;;7.90;4.20;;;;;;;11.35;47.01;101504.95;117417;1184;23442;-57
2021/10/24 02:52:24;;;;;;;9.40;3.50;;;;;;;11.32;47.09;101504.95;117531;1182;23630;-57
2021/10/24 02:54:53;;;;;;;7.10;3.80;;;;;;;11.26;46.72;101509.85;117534;1183;23442;-57
2021/10/24 02:57:21;;;;;;;10.70;4.30;;;;;;;11.17;46.75;101512.63;117534;1182;23469;-59
2021/10/24 02:59:53;;;;;;;13.50;4.80;;;;;;;11.03;46.82;101511.17;117409;1185;23477;-57
2021/10/24 03:02:22;;;;;;;8.10;3.50;;;;;;;10.93;46.71;101514.11;117448;1183;21989;-59
2021/10/24 03:04:50;;;;;;;14.10;4.50;;;;;;;10.82;46.84;101515.46;117437;1183;23603;-57
2021/10/24 03:07:20;;;;;;;9.00;3.60;;;;;;;10.71;46.87;101511.55;117416;1186;23561;-59
2021/10/24 03:09:48;;;;;;;6.40;3.60;;;;;;;10.64;46.81;101515.02;117376;1185;21854;-60
2021/10/24 03:12:16;;;;;;;5.80;3.20;;;;;;;10.58;46.77;101515.52;117397;1182;21909;-60
2021/10/24 03:15:05;;;;;;;10.20;3.70;;;;;;;10.55;46.89;101520.06;117465;1186;22977;-59
2021/10/24 03:17:33;;;;;;;10.30;3.60;;;;;;;10.54;46.95;101521.29;117542;1186;21862;-60
2021/10/24 03:20:03;;;;;;;6.70;3.40;;;;;;;10.53;46.89;101522.34;117481;1182;22626;-57
2021/10/24 03:22:31;;;;;;;7.00;3.40;;;;;;;10.51;46.88;101523.02;117430;1185;21858;-59
2021/10/24 03:24:59;;;;;;;8.40;3.50;;;;;;;10.48;46.84;101522.13;117458;1183;21933;-57
2021/10/24 03:27:28;;;;;;;7.00;3.40;;;;;;;10.47;46.92;101524.23;117556;1182;23433;-57
2021/10/24 03:29:58;;;;;;;11.90;3.00;;;;;;;10.44;47.03;101527.54;117513;1186;23441;-57
2021/10/24 03:32:26;;;;;;;7.10;2.90;;;;;;;10.42;46.96;101525.59;117583;1185;23543;-59
2021/10/24 03:34:54;;;;;;;12.10;4.20;;;;;;;10.39;47.01;101525.89;117462;1183;23567;-57
2021/10/24 03:37:22;;;;;;;9.30;2.90;;;;;;;10.35;46.89;101530.09;117492;1185;21858;-59
2021/10/24 03:39:51;;;;;;;8.90;3.50;;;;;;;10.32;46.85;101529.70;117239;1183;23545;-56
2021/10/24 03:42:19;;;;;;;7.60;3.70;;;;;;;10.32;47.04;101530.58;117523;1186;21854;-60
2021/10/24 03:44:48;;;;;;;7.80;3.60;;;;;;;10.29;47.01;101532.84;117489;1185;24150;-60
2021/10/24 03:47:16;;;;;;;8.10;3.40;;;;;;;10.27;47.07;101536.16;117481;1182;24223;-57
2021/10/24 03:49:46;;;;;;;8.20;3.50;;;;;;;10.25;47.04;101536.15;117507;1186;21867;-57
2021/10/24 03:52:14;;;;;;;9.60;4.30;;;;;;;10.27;46.96;101532.65;117485;1183;23608;-57
2021/10/24 03:54:42;;;;;;;9.10;4.00;;;;;;;10.27;46.88;101533.54;117508;1182;23442;-60
2021/10/24 03:57:10;;;;;;;10.70;4.10;;;;;;;10.26;46.80;101534.92;117597;1182;21922;-56
2021/10/24 03:59:41;;;;;;;;;;;;;;;10.25;46.77;101535.80;117459;1186;24203;-59
2021/10/24 04:02:09;;;;;;;12.10;4.60;;;;;;;10.25;46.84;101532.64;117515;1184;23545;-56
2021/10/24 04:04:38;;;;;;;12.40;4.20;;;;;;;10.25;46.87;101536.67;117435;1183;23528;-59
2021/10/24 04:07:06;;;;;;;13.20;4.90;;;;;;;10.27;47.00;101534.93;117482;1182;23490;-60
2021/10/24 04:09:36;;;;;;;11.10;4.60;;;;;;;10.28;46.78;101536.00;117386;1182;23314;-60
2021/10/24 04:12:05;;;;;;;12.10;5.00;;;;;;;10.28;47.01;101532.66;117467;1183;21849;-59
2021/10/24 04:14:34;;;;;;;11.00;4.60;;;;;;;10.27;47.08;101532.46;117518;1185;22979;-56
2021/10/24 04:17:02;;;;;;;13.50;4.70;;;;;;;10.30;47.02;101528.46;117421;1185;24142;-58
2021/10/24 04:19:30;;;;;;;16.30;5.40;;;;;;;10.34;47.06;101529.20;117652;1183;23848;-58
2021/10/24 04:21:58;;;;;;;16.50;6.60;;;;;;;10.39;47.15;101535.38;117438;1182;23556;-59
2021/10/24 04:24:27;;;;;;;22.30;8.40;;;;;;;10.54;47.03;101537.09;117542;1182;23515;-60
2021/10/24 04:26:56;;;;;;;22.30;7.30;;;;;;;10.60;46.83;101543.08;117558;1183;24064;-57
2021/10/24 04:29:25;;;;;;;18.50;5.70;;;;;;;10.63;46.65;101545.55;117568;1182;21999;-57
2021/10/24 04:31:53;;;;;;;17.30;5.30;;;;;;;10.67;46.94;101551.02;117573;1185;22933;-60
2021/10/24 04:34:21;;;;;;;14.30;4.70;;;;;;;10.67;46.83;101551.91;117336;1183;22915;-59
2021/10/24 04:36:49;;;;;;;11.40;5.00;;;;;;;10.67;46.84;101555.24;117461;1184;21862;-59
2021/10/24 04:39:18;;;;;;;13.10;4.70;;;;;;;10.69;46.83;101561.91;117541;1182;23442;-59
2021/10/24 04:41:56;;;;;;;11.80;4.10;;;;;;;10.66;46.83;101565.59;117412;1185;23544;-58
2021/10/24 04:44:24;;;;;;;12.00;4.80;;;;;;;10.60;46.96;101569.94;117507;1185;24159;-59
2021/10/24 04:46:53;;;;;;;14.20;4.30;;;;;;;10.57;46.94;101573.62;117437;1185;21861;-58
2021/10/24 04:49:21;;;;;;;14.10;4.10;;;;;;;10.57;46.81;101569.58;117398;1186;21856;-58
2021/10/24 04:51:49;;;;;;;12.90;4.50;;;;;;;10.61;46.79;101568.36;117508;1186;22928;-59
2021/10/24 04:54:19;;;;;;;9.80;3.60;;;;;;;10.57;46.78;101572.02;117503;1182;24152;-59
2021/10/24 04:56:48;;;;;;;9.80;4.20;;;;;;;10.48;47.14;101580.20;117448;1186;22335;-59
2021/10/24 04:59:20;;;;;;;6.90;3.40;;;;;;;10.44;47.01;101584.20;117418;1184;22010;-60
2021/10/24 05:01:50;;;;;;;9.50;4.20;;;;;;;10.38;46.84;101589.23;117463;1182;22328;-57
2021/10/24 05:04:19;;;;;;;10.80;3.80;;;;;;;10.34;47.00;101590.77;117504;1185;22914;-57
2021/10/24 05:06:48;;;;;;;9.10;3.40;;;;;;;10.30;47.07;101594.77;117473;1181;21861;-57
2021/10/24 05:09:18;;;;;;;7.90;3.40;;;;;;;10.25;46.89;101598.94;117453;1182;22815;-60
2021/10/24 05:11:52;;;;;;;8.80;3.40;;;;;;;10.29;46.96;101610.03;117415;1182;23474;-58
2021/10/24 05:14:21;;;;;;;13.60;3.80;;;;;;;10.27;46.78;101612.66;117443;1176;21916;-57
2021/10/24 05:16:49;;;;;;;16.70;4.70;;;;;;;10.30;46.87;101615.65;117368;1183;21852;-59
2021/10/24 05:19:17;;;;;;;9.90;3.50;;;;;;;10.23;47.07;101621.54;117521;1186;23545;-56
2021/10/24 05:21:45;;;;;;;8.60;4.30;;;;;;;10.18;46.93;101627.81;117314;1182;23544;-57
2021/10/24 05:24:14;;;;;;;9.40;3.90;;;;;;;10.18;46.92;101628.52;117346;1185;22925;-60
2021/10/24 05:26:44;;;;;;;11.50;3.90;;;;;;;10.17;47.01;101638.34;117484;1185;23502;-57
2021/10/24 05:29:12;;;;;;;11.10;3.80;;;;;;;10.18;47.13;101636.94;117509;1185;24737;-57
2021/10/24 05:31:41;;;;;;;10.00;3.90;;;;;;;10.22;47.11;101632.25;117571;1182;24152;-60
2021/10/24 05:34:09;;;;;;;10.20;4.50;;;;;;;10.26;47.10;101638.95;117513;1185;21861;-57
2021/10/24 05:36:37;;;;;;;18.20;4.90;;;;;;;10.30;47.11;101639.52;117503;1182;23551;-56
2021/10/24 05:39:05;;;;;;;6.80;4.00;;;;;;;10.37;47.30;101642.56;117469;1183;21924;-60
2021/10/24 05:41:35;;;;;;;8.50;3.40;;;;;;;10.40;47.34;101648.05;117438;1182;21984;-60
2021/10/24 05:44:04;;;;;;;11.40;3.90;;;;;;;10.45;47.39;101651.08;117354;1184;23763;-56
2021/10/24 05:46:33;;;;;;;8.80;4.00;;;;;;;10.57;47.42;101647.14;117466;1180;22915;-59
2021/10/24 05:49:03;;;;;;;10.30;4.20;;;;;;;10.67;47.21;101645.64;117438;1185;23599;-60
2021/10/24 05:51:31;;;;;;;9.10;3.80;;;;;;;10.81;47.26;101655.55;117509;1184;23566;-57
2021/10/24 05:54:00;;;;;;;9.40;3.70;;;;;;;10.92;47.21;101659.52;117513;1184;24152;-57
2021/10/24 05:56:28;;;;;;;10.40;4.20;;;;;;;11.10;47.05;101656.29;117507;1183;22918;-57
2021/10/24 05:58:57;;;;;;;10.40;4.30;;;;;;;11.14;47.21;101658.77;117457;1184;23566;-56
2021/10/24 06:01:26;;;;;;;11.80;5.20;;;;;;;11.27;47.17;101657.44;117359;1185;24126;-56
2021/10/24 06:03:55;;;;;;;10.30;4.80;;;;;;;11.29;47.15;101656.39;117516;1183;22049;-60
2021/10/24 06:06:23;;;;;;;13.30;5.40;;;;;;;11.48;47.17;101654.38;117485;1183;24138;-59
2021/10/24 06:08:53;;;;;;;14.10;5.30;;;;;;;11.58;47.17;101652.30;117478;1185;23567;-60
2021/10/24 06:13:52;;;;;;;11.60;4.20;;;;;;;11.73;47.25;101653.94;117387;1184;23451;-59
2021/10/24 06:16:21;;;;;;;8.70;4.40;;;;;;;11.89;47.33;101657.86;117443;1183;22897;-58
2021/10/24 06:18:49;;;;;;;14.00;4.10;;;;;;;11.99;47.18;101660.36;117436;1182;22935;-59
2021/10/24 06:21:17;;;;;;;10.20;4.00;;;;;;;12.08;47.11;101664.27;117469;1183;21892;-56
2021/10/24 06:23:45;;;;;;;11.40;4.40;;;;;;;12.09;47.36;101667.09;117492;1182;24139;-57
2021/10/24 06:26:13;;;;;;;13.10;4.90;;;;;;;12.20;47.21;101667.45;117363;1182;21857;-57
2021/10/24 06:28:42;;;;;;;8.40;3.80;;;;;;;12.26;47.43;101669.40;117478;1183;21865;-56
2021/10/24 06:31:10;;;;;;;11.80;3.90;;;;;;;12.33;47.29;101669.59;117399;1185;24156;-59
2021/10/24 06:33:38;;;;;;;12.10;4.90;;;;;;;12.43;47.52;101671.35;117512;1183;22386;-59
2021/10/24 06:36:06;;;;;;;11.70;4.10;;;;;;;12.53;47.45;101669.78;117478;1183;22632;-59
2021/10/24 06:38:35;;;;;;;15.70;4.60;;;;;;;12.68;47.43;101670.65;117519;1182;23468;-57
2021/10/24 06:41:03;;;;;;;14.80;5.10;;;;;;;12.81;47.48;101667.14;117387;1183;24185;-58
2021/10/24 06:43:31;;;;;;;10.80;4.70;;;;;;;12.86;47.36;101675.39;117316;1183;22654;-60
2021/10/24 06:46:01;;;;;;;15.30;4.80;;;;;;;13.01;47.32;101675.21;117397;1185;24140;-59
2021/10/24 06:48:29;;;;;;;10.50;4.60;;;;;;;13.12;47.56;101679.41;117399;1185;21863;-60
2021/10/24 06:50:57;;;;;;;10.60;4.90;;;;;;;13.21;47.34;101684.68;117308;1182;21868;-59
2021/10/24 06:53:26;;;;;;;11.40;4.70;;;;;;;13.24;47.31;101681.49;117466;1185;21855;-57
2021/10/24 06:55:55;;;;;;;13.20;4.10;;;;;;;13.31;47.37;101679.71;117356;1182;22950;-57
2021/10/24 06:58:24;;;;;;;13.00;4.50;;;;;;;13.43;47.32;101682.52;117402;1183;23429;-56
2021/10/24 07:00:52;;;;;;;12.30;5.20;;;;;;;13.50;47.47;101684.09;117391;1176;21860;-59
2021/10/24 07:03:21;;;;;;;12.10;3.80;;;;;;;13.56;47.35;101677.73;117418;1181;22915;-57
2021/10/24 07:05:49;;;;;;;11.10;3.80;;;;;;;13.62;47.44;101680.34;117402;1184;23542;-56
2021/10/24 07:08:17;;;;;;;9.70;3.90;;;;;;;13.71;47.31;101677.48;117295;1182;23560;-57
2021/10/24 07:10:45;;;;;;;10.00;4.00;;;;;;;13.78;47.23;101676.91;117330;1184;22501;-56
2021/10/24 07:13:13;;;;;;;34.00;9.20;;;;;;;13.84;47.37;101681.31;117311;1182;23442;-61
2021/10/24 07:15:41;;;;;;;10.00;3.80;;;;;;;13.91;47.26;101678.80;117436;1185;21926;-58
2021/10/24 07:18:10;;;;;;;11.40;3.20;;;;;;;14.06;47.49;101679.77;117464;1184;24166;-56
2021/10/24 07:20:38;;;;;;;11.20;3.70;;;;;;;14.20;47.37;101683.74;117400;1185;21874;-61
2021/10/24 07:23:06;;;;;;;83.50;23.60;;;;;;;14.30;47.30;101678.21;117369;1182;24153;-60
2021/10/24 07:25:34;;;;;;;16.50;5.30;;;;;;;14.44;47.40;101673.67;117510;1184;21857;-59
2021/10/24 07:28:03;;;;;;;8.00;3.20;;;;;;;14.61;47.40;101678.32;117369;1180;21861;-60
2021/10/24 07:30:32;;;;;;;7.40;3.20;;;;;;;14.77;47.44;101670.27;117438;1183;21857;-59
2021/10/24 07:33:00;;;;;;;47.80;15.20;;;;;;;14.92;47.39;101667.30;117380;1186;21876;-60
2021/10/24 07:35:28;;;;;;;551.30;150.50;;;;;;;15.05;47.23;101668.06;117364;1185;24171;-62
2021/10/24 07:37:58;;;;;;;30.60;10.40;;;;;;;15.14;47.13;101659.46;117432;1182;24237;-61
2021/10/24 07:40:26;;;;;;;14.90;4.20;;;;;;;15.25;47.27;101660.41;117461;1183;23474;-63
2021/10/24 07:42:54;;;;;;;21.50;6.70;;;;;;;15.43;47.18;101665.34;117482;1183;23537;-64
2021/10/24 07:45:23;;;;;;;13.60;4.80;;;;;;;15.58;47.06;101669.05;117583;1185;23570;-62
2021/10/24 07:47:51;;;;;;;11.40;4.10;;;;;;;15.70;47.00;101670.48;117512;1185;24225;-60
2021/10/24 07:50:19;;;;;;;10.70;4.10;;;;;;;15.75;46.98;101672.00;117450;1182;24142;-63
2021/10/24 07:52:47;;;;;;;10.00;3.70;;;;;;;15.85;47.24;101674.01;117480;1182;21857;-62
2021/10/24 07:55:17;;;;;;;9.60;3.30;;;;;;;15.97;47.05;101668.19;117458;1183;24246;-57
2021/10/24 07:57:45;;;;;;;16.40;6.10;;;;;;;16.10;46.83;101668.39;117482;1184;21888;-57
2021/10/24 08:00:13;;;;;;;11.60;3.40;;;;;;;16.19;46.82;101667.36;117491;1185;23544;-60
2021/10/24 08:02:43;;;;;;;12.20;3.70;;;;;;;16.33;46.94;101663.95;117532;1185;21850;-62
2021/10/24 08:05:11;;;;;;;8.10;2.80;;;;;;;16.46;46.95;101664.63;117512;1182;23566;-57
2021/10/24 08:07:41;;;;;;;16.20;4.10;;;;;;;16.59;46.90;101665.83;117469;1182;24153;-63
2021/10/24 08:10:12;;;;;;;9.40;2.50;;;;;;;16.69;46.85;101663.71;117371;1183;21862;-58
2021/10/24 08:12:52;;;;;;;10.40;2.50;;;;;;;16.76;46.66;101664.66;117320;1182;24175;-58
2021/10/24 08:15:20;;;;;;;7.00;2.40;;;;;;;16.77;46.48;101672.09;117392;1185;21854;-63
2021/10/24 08:17:49;;;;;;;8.50;3.00;;;;;;;16.71;46.11;101668.83;117472;1182;24158;-62
2021/10/24 08:20:18;;;;;;;44.90;8.70;;;;;;;16.68;46.41;101667.63;117449;1185;21858;-63
2021/10/24 08:22:46;;;;;;;8.40;3.20;;;;;;;16.78;46.69;101666.58;117412;1183;21902;-62
2021/10/24 08:25:14;;;;;;;6.00;2.30;;;;;;;17.02;46.96;101675.20;117448;1183;21855;-63
2021/10/24 08:27:43;;;;;;;21.60;5.30;;;;;;;17.19;46.59;101674.90;117495;1176;23469;-59
2021/10/24 08:30:11;;;;;;;6.50;1.80;;;;;;;17.21;46.50;101672.74;117461;1185;21855;-68
2021/10/24 08:32:41;;;;;;;6.80;2.40;;;;;;;17.20;46.29;101672.77;117372;1184;21959;-63
2021/10/24 08:35:09;;;;;;;6.20;1.90;;;;;;;17.12;46.22;101672.56;117485;1186;21864;-59
2021/10/24 08:37:41;;;;;;;7.00;1.50;;;;;;;17.03;46.17;101667.21;117521;1186;21861;-63
2021/10/24 08:40:09;;;;;;;8.20;1.60;;;;;;;16.96;45.84;101671.95;117479;1183;24212;-61
2021/10/24 08:42:40;;;;;;;7.90;1.40;;;;;;;16.77;45.37;101674.73;117542;1179;21857;-63
2021/10/24 08:45:10;;;;;;;5.70;1.20;;;;;;;16.51;45.13;101678.02;117432;1185;21854;-58
2021/10/24 08:47:40;;;;;;;4.50;1.20;;;;;;;16.25;45.07;101679.13;117533;1185;23650;-61
2021/10/24 08:50:09;;;;;;;2.40;1.00;;;;;;;16.02;45.18;101685.85;117496;1182;21859;-62
2021/10/24 08:52:39;;;;;;;4.70;1.50;;;;;;;15.90;45.33;101682.29;117565;1182;21858;-62
2021/10/24 08:55:08;;;;;;;3.10;1.00;;;;;;;15.95;45.24;101685.39;117458;1184;21870;-58
2021/10/24 08:57:36;;;;;;;7.00;1.60;;;;;;;16.00;45.05;101690.11;117423;1183;22650;-59
2021/10/24 09:00:05;;;;;;;3.80;1.20;;;;;;;15.93;44.56;101690.38;117354;1183;23465;-63
2021/10/24 09:03:04;;;;;;;3.30;1.20;;;;;;;15.82;44.87;101687.85;117437;1182;22655;-62
2021/10/24 09:05:43;;;;;;;5.20;2.00;;;;;;;15.80;44.80;101685.39;117489;1184;23465;-59
2021/10/24 09:08:22;;;;;;;5.00;2.00;;;;;;;15.82;45.22;101685.02;117507;1185;21852;-64
2021/10/24 09:11:05;;;;;;;12.30;2.80;;;;;;;15.93;45.55;101683.13;117473;1182;24150;-58
2021/10/24 09:13:35;;;;;;;5.50;1.40;;;;;;;16.13;45.50;101687.27;117416;1182;21864;-62
2021/10/24 09:16:07;;;;;;;9.90;3.10;;;;;;;16.29;45.25;101676.23;117427;1183;23712;-63
2021/10/24 09:18:40;;;;;;;13.60;3.90;;;;;;;16.51;45.38;101678.53;117421;1182;22932;-62
2021/10/24 09:21:14;;;;;;;9.10;3.30;;;;;;;16.68;45.27;101676.66;117410;1180;22912;-58
2021/10/24 09:23:50;;;;;;;7.00;2.10;;;;;;;16.85;45.25;101672.64;117625;1185;22055;-60
2021/10/24 09:26:23;;;;;;;10.10;2.10;;;;;;;16.90;44.98;101675.22;117505;1182;23468;-62
2021/10/24 09:28:58;;;;;;;6.00;2.30;;;;;;;16.94;45.10;101668.60;117515;1183;23366;-63
2021/10/24 09:31:37;;;;;;;4.90;2.00;;;;;;;17.21;45.33;101662.98;117512;1184;21868;-60
2021/10/24 09:34:23;;;;;;;6.80;1.90;;;;;;;17.28;45.05;101670.99;117513;1184;21854;-64
2021/10/24 09:36:53;;;;;;;34.20;9.30;;;;;;;17.12;44.68;101678.39;117460;1188;21858;-58
2021/10/24 09:39:26;;;;;;;5.00;2.30;;;;;;;16.88;44.49;101680.95;117479;1182;22834;-63
2021/10/24 09:42:16;;;;;;;6.20;2.20;;;;;;;16.64;44.54;101676.73;117656;1183;22935;-63
2021/10/24 09:45:04;;;;;;;7.20;2.70;;;;;;;16.61;44.83;101675.18;117376;1182;23547;-62
2021/10/24 09:47:34;;;;;;;7.90;2.20;;;;;;;16.71;45.13;101675.73;117511;1176;21898;-60
2021/10/24 09:50:04;;;;;;;9.60;2.50;;;;;;;16.85;45.19;101672.47;117509;1183;21857;-60
2021/10/24 09:52:33;;;;;;;6.00;2.70;;;;;;;17.09;45.16;101676.86;117533;1185;21951;-63
2021/10/24 09:55:03;;;;;;;10.80;3.00;;;;;;;17.17;44.84;101677.95;117506;1183;21873;-63
2021/10/24 09:57:34;;;;;;;12.10;6.30;;;;;;;16.97;44.56;101683.27;117481;1185;21957;-62
2021/10/24 10:00:03;;;;;;;10.80;4.50;;;;;;;16.84;44.58;101680.64;117567;1184;23705;-62
2021/10/24 10:02:31;;;;;;;6.80;2.00;;;;;;;16.79;44.65;101684.27;117413;1182;24163;-58
2021/10/24 10:05:00;;;;;;;20.40;12.20;;;;;;;16.66;44.01;101687.16;117392;1183;23452;-62
2021/10/24 10:07:28;;;;;;;10.20;4.30;;;;;;;16.43;43.96;101686.64;117415;1183;23442;-58
2021/10/24 10:09:59;;;;;;;7.60;2.90;;;;;;;16.24;44.24;101687.64;117392;1184;23469;-64
2021/10/24 10:12:28;;;;;;;8.00;2.10;;;;;;;16.27;44.48;101691.67;117441;1182;23544;-60
2021/10/24 10:15:20;;;;;;;11.00;2.70;;;;;;;16.32;44.19;101683.45;117427;1186;21855;-57
2021/10/24 10:17:57;;;;;;;73.70;7.40;;;;;;;16.25;44.18;101687.45;117392;1184;24239;-62
2021/10/24 10:20:27;;;;;;;37.60;5.40;;;;;;;16.23;44.36;101686.60;117545;1185;21852;-58
2021/10/24 10:23:07;;;;;;;19.00;3.60;;;;;;;16.20;44.20;101686.27;117498;1185;21862;-57
2021/10/24 10:25:37;;;;;;;21.80;4.30;;;;;;;16.08;43.68;101688.58;117383;1182;23445;-64
2021/10/24 10:28:12;;;;;;;17.80;3.40;;;;;;;15.90;43.68;101687.39;117431;1184;23203;-59
2021/10/24 10:30:45;;;;;;;5.00;2.20;;;;;;;15.72;43.65;101689.73;117378;1183;23468;-59
2021/10/24 10:33:33;;;;;;;7.20;2.00;;;;;;;15.58;43.68;101688.68;117388;1184;21857;-63
2021/10/24 10:36:03;;;;;;;17.30;2.80;;;;;;;15.56;44.17;101683.39;117454;1184;21960;-65
2021/10/24 10:38:45;;;;;;;7.40;2.00;;;;;;;15.83;44.11;101694.39;117349;1188;24146;-64
2021/10/24 10:41:14;;;;;;;5.70;2.00;;;;;;;16.00;44.01;101687.29;117472;1185;21908;-64
2021/10/24 10:44:07;;;;;;;8.20;2.50;;;;;;;16.06;43.93;101689.67;117397;1182;22951;-63
2021/10/24 10:46:36;;;;;;;6.80;2.30;;;;;;;16.08;43.84;101697.98;117365;1185;22648;-59
2021/10/24 10:49:36;;;;;;;6.20;2.50;;;;;;;16.00;44.10;101702.86;117431;1185;23637;-60
2021/10/24 10:52:23;;;;;;;;;;;;;;;15.87;44.01;101707.79;116961;1184;23446;-64
2021/10/24 10:54:55;;;;;;;5.30;2.10;;;;;;;15.72;43.73;101709.02;116847;1188;23482;-59
2021/10/24 10:57:29;;;;;;;7.90;3.50;;;;;;;15.63;43.73;101708.09;116899;1186;21866;-65
2021/10/24 10:59:58;;;;;;;8.40;3.00;;;;;;;15.73;44.12;101714.33;116925;1189;21867;-59
2021/10/24 11:02:28;;;;;;;9.90;4.20;;;;;;;15.87;44.04;101709.58;116926;1189;22891;-65
2021/10/24 11:05:00;;;;;;;8.00;2.90;;;;;;;15.96;44.33;101706.10;117924;1188;23002;-58
2021/10/24 11:07:37;;;;;;;6.10;2.80;;;;;;;16.28;44.47;101702.64;116921;1188;21868;-60
2021/10/24 11:10:17;;;;;;;5.30;2.40;;;;;;;16.50;44.17;101703.20;116951;1185;24009;-64
2021/10/24 11:12:47;;;;;;;4.20;1.80;;;;;;;16.54;43.81;101704.02;116931;1188;21856;-64
2021/10/24 11:15:34;;;;;;;4.50;2.10;;;;;;;16.50;43.19;101705.50;116904;1186;21940;-63
2021/10/24 11:18:02;;;;;;;3.50;1.30;;;;;;;16.36;43.41;101707.65;116879;1188;21867;-57
2021/10/24 11:20:41;;;;;;;5.10;1.90;;;;;;;16.32;43.53;101705.77;116839;1186;21855;-58
2021/10/24 11:23:11;;;;;;;4.90;1.80;;;;;;;16.48;43.89;101709.41;116925;1189;21828;-64
2021/10/24 11:25:47;;;;;;;4.90;2.00;;;;;;;16.64;43.74;101710.40;116897;1189;24224;-64
2021/10/24 11:28:18;;;;;;;4.00;1.70;;;;;;;16.67;43.46;101712.30;117203;1186;21857;-59
2021/10/24 11:30:55;;;;;;;4.50;2.30;;;;;;;16.58;43.30;101709.79;117570;1185;23566;-58